| time (UTC) | temp C | wind direction | speed KPH | gust KPH | rain 1hr cm | rain 24hr cm | rain mn cm | humidity % | barometer mb |
| 20260906034543 | 11 | 274 | 1.6 | 12.9 | 0.00 | 0.00 | 0.00 | 92 | 1005.2 |
| 20260906033050 | 11 | 244 | 3.2 | 20.9 | 0.00 | 0.00 | 0.00 | 92 | 1005.1 |
| 20260906031640 | 11 | 258 | 1.6 | 16.1 | 0.00 | 0.00 | 0.00 | 92 | 1005.0 |
| 20260906030039 | 11 | 237 | 4.8 | 17.7 | 0.00 | 0.00 | 0.00 | 92 | 1004.9 |
| 20260906024541 | 11 | 272 | 0.0 | 8.0 | 0.00 | 0.00 | 0.00 | 92 | 1004.7 |
| 20260906023044 | 11 | 228 | 0.0 | 11.3 | 0.00 | 0.00 | 0.00 | 91 | 1004.7 |
| 20260906021530 | 11 | 262 | 0.0 | 11.3 | 0.00 | 0.00 | 0.00 | 91 | 1004.6 |
| 20260906020028 | 11 | 272 | 3.2 | 14.5 | 0.00 | 0.00 | 0.00 | 90 | 1004.5 |
| 20260906014528 | 11 | 185 | 0.0 | 12.9 | 0.00 | 0.00 | 0.00 | 90 | 1004.5 |
| 20260906013035 | 11 | 254 | 3.2 | 14.5 | 0.00 | 0.00 | 0.00 | 90 | 1004.4 |
| 20260906011524 | 12 | 268 | 4.8 | 17.7 | 0.00 | 0.00 | 0.00 | 90 | 1004.3 |
| 20260906010023 | 12 | 231 | 0.0 | 14.5 | 0.00 | 0.00 | 0.00 | 90 | 1004.5 |
| 20260906004522 | 12 | 256 | 1.6 | 16.1 | 0.00 | 0.00 | 0.00 | 90 | 1004.3 |
| 20260906003020 | 12 | 204 | 4.8 | 22.5 | 0.00 | 0.00 | 0.00 | 90 | 1004.3 |
| 20260906001520 | 12 | 237 | 3.2 | 17.7 | 0.00 | 0.00 | 0.00 | 90 | 1004.3 |
| 20260906000035 | 12 | 247 | 1.6 | 14.5 | 0.00 | 0.00 | 0.00 | 90 | 1004.3 |
| 20260905234516 | 12 | 310 | 1.6 | 11.3 | 0.00 | 0.00 | 0.00 | 90 | 1004.3 |
| 20260905233015 | 12 | 241 | 1.6 | 20.9 | 0.00 | 0.00 | 0.00 | 90 | 1004.4 |
| 20260905231515 | 12 | 256 | 3.2 | 24.1 | 0.00 | 0.00 | 0.00 | 90 | 1004.2 |
| 20260905230013 | 12 | 234 | 4.8 | 14.5 | 0.00 | 0.00 | 0.00 | 90 | 1004.2 |
| 20260905224513 | 12 | 244 | 1.6 | 16.1 | 0.00 | 0.00 | 0.00 | 90 | 1004.4 |
| 20260905223011 | 12 | 248 | 4.8 | 22.5 | 0.00 | 0.00 | 0.00 | 90 | 1004.3 |
| 20260905221507 | 12 | 224 | 1.6 | 17.7 | 0.00 | 0.00 | 0.00 | 90 | 1004.2 |
| 20260905220006 | 12 | 246 | 6.4 | 22.5 | 0.00 | 0.00 | 0.00 | 90 | 1004.3 |
| 20260905214505 | 12 | 249 | 0.0 | 24.1 | 0.00 | 0.00 | 0.00 | 90 | 1004.2 |
| 20260905213105 | 12 | 232 | 8.0 | 25.7 | 0.00 | 0.00 | 0.00 | 89 | 1004.3 |
| 20260905211600 | 12 | 251 | 3.2 | 22.5 | 0.00 | 0.00 | 0.00 | 88 | 1004.3 |
| 20260905210113 | 12 | 230 | 0.0 | 12.9 | 0.00 | 0.00 | 0.00 | 89 | 1004.3 |
| 20260905204601 | 12 | 243 | 4.8 | 19.3 | 0.00 | 0.00 | 0.00 | 89 | 1004.2 |
| 20260905203055 | 12 | 248 | 3.2 | 24.1 | 0.00 | 0.00 | 0.00 | 89 | 1004.3 |
| 20260905201551 | 12 | 227 | 1.6 | 16.1 | 0.00 | 0.00 | 0.00 | 89 | 1004.1 |
| 20260905200049 | 12 | 267 | 4.8 | 16.1 | 0.00 | 0.00 | 0.00 | 89 | 1004.1 |
| 20260905194559 | 12 | 225 | 6.4 | 19.3 | 0.00 | 0.00 | 0.00 | 89 | 1004.1 |
| 20260905193048 | 12 | 258 | 4.8 | 20.9 | 0.00 | 0.00 | 0.00 | 88 | 1004.2 |
| 20260905191550 | 12 | 204 | 1.6 | 24.1 | 0.00 | 0.00 | 0.00 | 88 | 1004.1 |
| 20260905190046 | 13 | 226 | 3.2 | 22.5 | 0.00 | 0.00 | 0.00 | 88 | 1003.9 |
| 20260905184607 | 13 | 257 | 4.8 | 27.4 | 0.00 | 0.00 | 0.00 | 89 | 1003.9 |
| 20260905183048 | 13 | 253 | 1.6 | 17.7 | 0.00 | 0.00 | 0.00 | 88 | 1004.0 |
| 20260905181555 | 13 | 240 | 9.7 | 24.1 | 0.00 | 0.00 | 0.00 | 88 | 1004.0 |
| 20260905180049 | 13 | 187 | 14.5 | 32.2 | 0.00 | 0.00 | 0.00 | 88 | 1004.0 |
| 20260905174541 | 13 | 237 | 6.4 | 17.7 | 0.00 | 0.00 | 0.00 | 88 | 1003.9 |
| 20260905173040 | 13 | 229 | 3.2 | 19.3 | 0.00 | 0.00 | 0.00 | 88 | 1003.8 |
| 20260905171541 | 13 | 223 | 4.8 | 24.1 | 0.00 | 0.00 | 0.00 | 88 | 1003.6 |
| 20260905170039 | 13 | 254 | 1.6 | 25.7 | 0.00 | 0.00 | 0.00 | 88 | 1003.5 |
| 20260905164535 | 13 | 212 | 1.6 | 16.1 | 0.00 | 0.00 | 0.00 | 88 | 1003.3 |
| 20260905163033 | 13 | 249 | 9.7 | 29.0 | 0.00 | 0.00 | 0.00 | 88 | 1003.2 |
| 20260905161531 | 13 | 249 | 1.6 | 19.3 | 0.00 | 0.00 | 0.00 | 88 | 1003.1 |
| 20260905160030 | 13 | 293 | 3.2 | 22.5 | 0.00 | 0.00 | 0.00 | 88 | 1002.9 |
| 20260905154535 | 13 | 220 | 1.6 | 17.7 | 0.00 | 0.00 | 0.00 | 91 | 1002.7 |
| 20260905153024 | 13 | 335 | 4.8 | 30.6 | 0.00 | 0.00 | 0.00 | 91 | 1002.7 |
| 20260905151525 | 13 | 233 | 0.0 | 16.1 | 0.00 | 0.00 | 0.00 | 90 | 1002.5 |
| 20260905150022 | 13 | 193 | 0.0 | 16.1 | 0.00 | 0.00 | 0.00 | 90 | 1002.5 |
| 20260905144521 | 13 | 238 | 1.6 | 22.5 | 0.00 | 0.00 | 0.00 | 89 | 1002.5 |
| 20260905143020 | 13 | 232 | 3.2 | 17.7 | 0.00 | 0.00 | 0.00 | 89 | 1002.4 |
| 20260905141521 | 13 | 254 | 3.2 | 20.9 | 0.00 | 0.00 | 0.00 | 89 | 1002.3 |
| 20260905140017 | 13 | 254 | 4.8 | 22.5 | 0.00 | 0.00 | 0.00 | 88 | 1002.2 |
| 20260905134516 | 15 | 233 | 11.3 | 37.0 | 0.00 | 0.00 | 0.00 | 85 | 1002.0 |
| 20260905133022 | 16 | 244 | 14.5 | 29.0 | 0.00 | 0.00 | 0.00 | 78 | 1001.1 |
| 20260905131511 | 16 | 231 | 14.5 | 32.2 | 0.00 | 0.00 | 0.00 | 78 | 1001.1 |
| 20260905130015 | 16 | 184 | 8.0 | 24.1 | 0.00 | 0.00 | 0.00 | 79 | 1000.8 |
| 20260905124508 | 16 | 270 | 1.6 | 17.7 | 0.00 | 0.00 | 0.00 | 84 | 1001.0 |
| 20260905123007 | 15 | 318 | 4.8 | 29.0 | 0.00 | 0.00 | 0.00 | 83 | 1000.9 |
| 20260905121506 | 15 | 229 | 6.4 | 25.7 | 0.00 | 0.00 | 0.00 | 86 | 1000.9 |
| 20260905120004 | 15 | 268 | 16.1 | 32.2 | 0.00 | 0.00 | 0.00 | 81 | 1000.8 |
| 20260905114502 | 16 | 247 | 9.7 | 27.4 | 0.00 | 0.00 | 0.00 | 80 | 1000.6 |
| 20260905113100 | 16 | 206 | 12.9 | 29.0 | 0.00 | 0.00 | 0.00 | 80 | 1000.5 |
| 20260905111643 | 16 | 260 | 16.1 | 29.0 | 0.00 | 0.00 | 0.00 | 83 | 1000.6 |
| 20260905110055 | 15 | 224 | 9.7 | 30.6 | 0.00 | 0.00 | 0.00 | 88 | 1000.5 |
| 20260905104600 | 13 | 250 | 6.4 | 24.1 | 0.00 | 0.00 | 0.00 | 90 | 1000.4 |
| 20260905103054 | 14 | 236 | 6.4 | 35.4 | 0.00 | 0.00 | 0.00 | 88 | 1000.3 |
| 20260905101559 | 15 | 229 | 14.5 | 29.0 | 0.00 | 0.00 | 0.00 | 89 | 999.9 |
| 20260905100051 | 14 | 252 | 3.2 | 20.9 | 0.00 | 0.00 | 0.00 | 91 | 999.6 |
| 20260905094547 | 14 | 211 | 8.0 | 20.9 | 0.00 | 0.00 | 0.00 | 91 | 999.6 |
| 20260905093046 | 14 | 300 | 4.8 | 20.9 | 0.00 | 0.00 | 0.00 | 91 | 999.4 |
| 20260905091545 | 14 | 238 | 4.8 | 29.0 | 0.00 | 0.00 | 0.00 | 88 | 999.2 |
| 20260905090044 | 15 | 235 | 11.3 | 37.0 | 0.00 | 0.00 | 0.00 | 88 | 999.2 |
| 20260905084549 | 15 | 249 | 20.9 | 37.0 | 0.00 | 0.00 | 0.00 | 86 | 999.0 |
| 20260905083040 | 15 | 283 | 12.9 | 27.4 | 0.00 | 0.00 | 0.00 | 89 | 998.7 |
| 20260905081538 | 14 | 229 | 16.1 | 46.7 | 0.00 | 0.00 | 0.00 | 88 | 998.4 |
| 20260905080045 | 15 | 251 | 14.5 | 37.0 | 0.00 | 0.00 | 0.00 | 85 | 998.1 |
| 20260905074538 | 15 | 262 | 9.7 | 27.4 | 0.00 | 0.00 | 0.00 | 88 | 997.8 |
| 20260905073032 | 14 | 276 | 16.1 | 51.5 | 0.00 | 0.00 | 0.00 | 90 | 997.8 |
| 20260905071533 | 14 | 238 | 11.3 | 22.5 | 0.00 | 0.00 | 0.00 | 92 | 997.4 |
| 20260905070027 | 13 | 232 | 9.7 | 19.3 | 0.00 | 0.00 | 0.00 | 92 | 997.4 |
| 20260905064526 | 13 | 245 | 6.4 | 19.3 | 0.00 | 0.00 | 0.00 | 92 | 997.3 |
| 20260905063024 | 13 | 193 | 6.4 | 16.1 | 0.00 | 0.00 | 0.00 | 93 | 996.9 |
| 20260905061529 | 13 | 238 | 6.4 | 16.1 | 0.00 | 0.00 | 0.00 | 94 | 997.0 |
| 20260905060026 | 13 | 246 | 3.2 | 16.1 | 0.00 | 0.00 | 0.00 | 95 | 996.7 |
| 20260905054518 | 13 | 217 | 6.4 | 16.1 | 0.00 | 0.00 | 0.00 | 95 | 996.8 |
| 20260905053017 | 13 | 233 | 3.2 | 14.5 | 0.00 | 0.00 | 0.00 | 95 | 996.6 |
| 20260905051518 | 13 | 200 | 3.2 | 17.7 | 0.00 | 0.00 | 0.00 | 95 | 996.3 |
| 20260905050017 | 13 | 170 | 1.6 | 9.7 | 0.00 | 0.00 | 0.00 | 94 | 996.0 |
| 20260905044514 | 13 | 239 | 0.0 | 8.0 | 0.00 | 0.00 | 0.00 | 94 | 996.4 |
| 20260905043014 | 13 | 227 | 1.6 | 12.9 | 0.00 | 0.00 | 0.00 | 94 | 996.4 |
| 20260905041513 | 12 | 225 | 1.6 | 14.5 | 0.00 | 0.00 | 0.00 | 95 | 996.4 |
| 20260905040010 | 12 | 235 | 3.2 | 14.5 | 0.00 | 0.00 | 0.00 | 94 | 996.4 |